createdAt,value
2022-10-10T00:00:09.857Z,11.93
2022-10-10T00:05:08.320Z,8.80
2022-10-10T00:10:06.555Z,6.63
2022-10-10T00:15:05.446Z,4.40
2022-10-10T00:20:04.064Z,9.10
2022-10-10T00:25:06.495Z,6.47
2022-10-10T00:30:07.426Z,7.43
2022-10-10T00:35:06.509Z,5.35
2022-10-10T00:40:06.467Z,6.93
2022-10-10T00:45:24.751Z,9.27
2022-10-10T00:50:24.469Z,5.53
2022-10-10T00:55:23.444Z,11.45
2022-10-10T01:00:22.173Z,7.97
2022-10-10T01:05:21.070Z,8.82
2022-10-10T01:10:22.990Z,11.25
2022-10-10T01:15:35.498Z,7.40
2022-10-10T01:21:01.608Z,6.82
2022-10-10T01:26:14.734Z,8.02
2022-10-10T01:31:14.735Z,6.50
2022-10-10T01:36:18.643Z,9.23
2022-10-10T01:46:28.197Z,5.85
2022-10-10T01:51:38.048Z,6.72
2022-10-10T01:56:49.899Z,5.38
2022-10-10T02:01:54.010Z,6.43
2022-10-10T02:06:56.015Z,6.15
2022-10-10T02:11:54.770Z,5.55
2022-10-10T02:16:54.951Z,6.60
2022-10-10T02:21:55.261Z,5.95
2022-10-10T02:27:09.662Z,6.35
2022-10-10T02:32:37.021Z,9.63
2022-10-10T02:37:39.214Z,5.78
2022-10-10T02:42:40.021Z,9.73
2022-10-10T02:47:41.320Z,5.50
2022-10-10T02:52:45.394Z,8.63
2022-10-10T02:57:45.029Z,5.75
2022-10-10T03:02:47.351Z,7.10
2022-10-10T03:07:45.727Z,5.72
2022-10-10T03:12:43.206Z,7.93
2022-10-10T03:17:43.142Z,8.30
2022-10-10T03:22:40.550Z,7.50
2022-10-10T03:27:38.559Z,13.55
2022-10-10T03:32:37.763Z,6.13
2022-10-10T03:37:36.333Z,5.55
2022-10-10T03:42:36.281Z,6.97
2022-10-10T03:47:44.362Z,4.40
2022-10-10T03:52:43.125Z,5.75
2022-10-10T03:57:42.151Z,6.85
2022-10-10T04:02:44.869Z,5.68
2022-10-10T04:07:48.147Z,7.22
2022-10-10T04:12:46.615Z,4.22
2022-10-10T04:17:48.248Z,8.27
2022-10-10T04:22:48.715Z,4.05
2022-10-10T04:27:50.657Z,4.38
2022-10-10T04:32:49.471Z,5.18
2022-10-10T04:37:53.572Z,7.78
2022-10-10T04:42:54.746Z,7.43
2022-10-10T04:47:54.098Z,6.85
2022-10-10T04:52:55.632Z,6.28
2022-10-10T04:57:54.546Z,8.07
2022-10-10T05:02:55.162Z,12.52
2022-10-10T05:08:01.886Z,12.10
2022-10-10T05:13:01.687Z,8.18
2022-10-10T05:18:02.598Z,11.60
2022-10-10T05:23:01.011Z,5.72
2022-10-10T05:28:05.399Z,6.68
2022-10-10T05:33:03.945Z,4.18
2022-10-10T05:38:06.039Z,6.20
2022-10-10T05:43:04.270Z,5.50
2022-10-10T05:48:04.402Z,6.30
2022-10-10T05:53:02.807Z,3.38
2022-10-10T05:58:06.880Z,9.00
2022-10-10T06:03:07.649Z,5.43
2022-10-10T06:08:12.062Z,2.92
2022-10-10T06:13:11.263Z,6.55
2022-10-10T06:18:13.111Z,6.30
2022-10-10T06:23:12.839Z,4.65
2022-10-10T06:28:12.329Z,8.57
2022-10-10T06:33:15.308Z,3.83
2022-10-10T06:38:17.159Z,5.57
2022-10-10T06:43:16.576Z,4.25
2022-10-10T06:48:16.247Z,2.60
2022-10-10T06:53:14.752Z,3.60
2022-10-10T06:58:16.699Z,5.35
2022-10-10T07:03:14.948Z,4.35
2022-10-10T07:08:13.549Z,4.78
2022-10-10T07:13:11.208Z,5.07
2022-10-10T07:18:10.366Z,10.20
2022-10-10T07:23:11.823Z,3.05
2022-10-10T07:28:13.903Z,9.38
2022-10-10T07:33:16.417Z,6.70
2022-10-10T07:38:17.446Z,2.25
2022-10-10T07:43:16.368Z,5.95
2022-10-10T07:48:17.830Z,7.00
2022-10-10T07:53:18.111Z,4.25
2022-10-10T07:58:19.380Z,4.20
2022-10-10T08:03:20.730Z,6.32
2022-10-10T08:08:23.188Z,5.75
2022-10-10T08:13:23.550Z,4.95
2022-10-10T08:18:21.884Z,2.58
2022-10-10T08:23:23.850Z,2.15
2022-10-10T08:28:24.926Z,7.13
2022-10-10T08:33:25.929Z,8.98
2022-10-10T08:38:24.564Z,7.75
2022-10-10T08:43:29.591Z,1.60
2022-10-10T08:48:30.267Z,2.55
2022-10-10T08:53:35.714Z,3.75
2022-10-10T08:58:55.619Z,7.72
2022-10-10T09:03:56.254Z,3.65
2022-10-10T09:09:13.488Z,4.05
2022-10-10T09:14:26.438Z,3.42
2022-10-10T09:19:35.011Z,1.90
2022-10-10T09:24:57.333Z,2.75
2022-10-10T09:30:09.467Z,4.13
2022-10-10T09:35:15.254Z,4.85
2022-10-10T09:40:19.109Z,4.07
2022-10-10T09:45:21.860Z,6.65
2022-10-10T09:50:21.266Z,2.13
2022-10-10T09:55:24.739Z,2.42
2022-10-10T10:00:30.042Z,6.55
2022-10-10T10:05:28.629Z,2.97
2022-10-10T10:10:27.886Z,2.83
2022-10-10T10:15:29.934Z,1.30
2022-10-10T10:20:31.750Z,1.58
2022-10-10T10:25:39.564Z,5.80
2022-10-10T10:30:39.805Z,2.05
2022-10-10T10:35:51.808Z,5.15
2022-10-10T10:41:11.519Z,2.22
2022-10-10T10:46:12.186Z,5.00
2022-10-10T10:51:32.467Z,2.72
2022-10-10T10:56:36.333Z,4.03
2022-10-10T11:02:11.119Z,1.77
2022-10-10T11:07:20.710Z,2.80
2022-10-10T11:12:54.598Z,3.63
2022-10-10T11:17:56.287Z,3.15
2022-10-10T11:23:09.964Z,7.40
2022-10-10T11:28:49.573Z,3.88
2022-10-10T11:34:01.564Z,4.53
2022-10-10T11:39:16.060Z,2.35
2022-10-10T11:44:22.979Z,2.10
2022-10-10T11:49:32.395Z,4.72
2022-10-10T11:54:44.941Z,3.85
2022-10-10T11:59:47.827Z,5.68
2022-10-10T12:04:45.419Z,3.33
2022-10-10T12:09:46.902Z,5.40
2022-10-10T12:14:56.766Z,4.07
2022-10-10T12:20:10.409Z,5.22
2022-10-10T12:25:23.547Z,4.55
2022-10-10T12:30:25.252Z,5.80
2022-10-10T12:35:44.581Z,3.22
2022-10-10T12:41:03.324Z,5.05
2022-10-10T12:46:45.634Z,1.90
2022-10-10T12:52:02.558Z,4.30
2022-10-10T12:57:34.615Z,4.95
2022-10-10T13:02:36.346Z,4.50
2022-10-10T13:07:37.216Z,4.03
2022-10-10T13:12:35.946Z,9.52
2022-10-10T13:17:40.938Z,5.22
2022-10-10T13:22:45.218Z,5.05
2022-10-10T13:27:46.196Z,2.65
2022-10-10T13:32:47.535Z,3.67
2022-10-10T13:37:47.960Z,5.82
2022-10-10T13:42:49.814Z,11.77
2022-10-10T13:47:54.763Z,8.15
2022-10-10T13:53:30.685Z,3.50
2022-10-10T13:58:39.710Z,4.13
2022-10-10T14:03:39.376Z,5.32
2022-10-10T14:08:40.380Z,9.48
2022-10-10T14:13:48.052Z,4.93
2022-10-10T14:18:56.246Z,5.55
2022-10-10T14:23:55.103Z,8.25
2022-10-10T14:28:56.800Z,7.90
2022-10-10T14:33:56.118Z,7.50
2022-10-10T14:38:55.729Z,5.93
2022-10-10T14:43:54.217Z,4.15
2022-10-10T14:48:52.875Z,6.63
2022-10-10T14:54:13.517Z,2.33
2022-10-10T14:59:45.729Z,4.15
2022-10-10T15:04:40.027Z,4.90
2022-10-10T15:09:42.864Z,4.63
2022-10-10T15:14:48.441Z,6.63
2022-10-10T15:19:58.456Z,5.45
2022-10-10T15:25:04.625Z,4.93
2022-10-10T15:30:04.954Z,7.75
2022-10-10T15:35:07.300Z,3.72
2022-10-10T15:40:06.386Z,5.90
2022-10-10T15:45:08.203Z,6.95
2022-10-10T15:50:07.106Z,10.13
2022-10-10T15:55:11.461Z,11.65
2022-10-10T16:00:11.099Z,23.45
2022-10-10T16:05:15.781Z,19.42
2022-10-10T16:10:19.987Z,25.02
2022-10-10T16:15:18.113Z,19.90
2022-10-10T16:20:17.145Z,20.13
2022-10-10T16:25:23.502Z,20.13
2022-10-10T16:30:21.645Z,11.90
2022-10-10T16:35:20.226Z,11.35
2022-10-10T16:40:18.368Z,23.20
2022-10-10T16:45:16.957Z,13.10
2022-10-10T16:50:19.016Z,12.30
2022-10-10T16:55:17.387Z,14.55
2022-10-10T17:00:15.730Z,10.68
2022-10-10T17:05:13.890Z,15.63
2022-10-10T17:10:14.039Z,9.70
2022-10-10T17:15:14.311Z,6.45
2022-10-10T17:20:28.205Z,6.95
2022-10-10T17:25:35.270Z,10.87
2022-10-10T17:30:42.488Z,5.88
2022-10-10T17:35:44.962Z,8.18
2022-10-10T17:40:59.184Z,4.13
2022-10-10T17:46:33.039Z,6.25
2022-10-10T17:51:35.904Z,2.97
2022-10-10T17:56:37.759Z,6.15
2022-10-10T18:01:37.330Z,7.55
2022-10-10T18:06:37.620Z,4.85
2022-10-10T18:11:36.610Z,2.70
2022-10-10T18:16:36.132Z,6.97
2022-10-10T18:21:35.329Z,7.63
2022-10-10T18:26:37.186Z,5.65
2022-10-10T18:31:36.876Z,5.07
2022-10-10T18:36:36.436Z,7.47
2022-10-10T18:41:34.900Z,2.85
2022-10-10T18:46:34.849Z,4.35
2022-10-10T18:51:34.287Z,5.50
2022-10-10T18:56:33.115Z,8.65
2022-10-10T19:01:35.346Z,4.88
2022-10-10T19:06:36.183Z,10.18
2022-10-10T19:11:36.649Z,10.45
2022-10-10T19:16:35.891Z,3.95
2022-10-10T19:21:35.771Z,3.28
2022-10-10T19:26:34.940Z,4.80
2022-10-10T19:31:33.300Z,6.00
2022-10-10T19:36:34.362Z,4.43
2022-10-10T19:41:37.477Z,5.15
2022-10-10T19:46:37.945Z,4.07
2022-10-10T19:51:35.964Z,6.75
2022-10-10T19:56:35.173Z,3.97
2022-10-10T20:01:34.128Z,6.68
2022-10-10T20:06:37.668Z,4.95
2022-10-10T20:11:37.329Z,12.93
2022-10-10T20:16:35.486Z,5.85
2022-10-10T20:21:34.200Z,4.82
2022-10-10T20:26:33.286Z,6.43
2022-10-10T20:31:35.104Z,7.05
2022-10-10T20:36:33.721Z,6.05
2022-10-10T20:41:36.210Z,8.07
2022-10-10T20:46:39.256Z,3.67
2022-10-10T20:51:39.679Z,5.10
2022-10-10T20:56:38.660Z,6.22
2022-10-10T21:01:37.849Z,5.00
2022-10-10T21:06:38.211Z,5.03
2022-10-10T21:11:39.197Z,6.10
2022-10-10T21:16:39.154Z,5.72
2022-10-10T21:21:37.216Z,9.80
2022-10-10T21:26:35.929Z,9.10
2022-10-10T21:31:36.883Z,9.95
2022-10-10T21:36:36.084Z,7.28
2022-10-10T21:41:36.193Z,3.40
2022-10-10T21:46:36.960Z,8.45
2022-10-10T21:51:42.167Z,8.63
2022-10-10T21:56:40.985Z,7.30
2022-10-10T22:01:39.746Z,8.30
2022-10-10T22:06:38.953Z,7.07
2022-10-10T22:11:37.549Z,7.65
2022-10-10T22:16:36.277Z,6.97
2022-10-10T22:21:35.557Z,6.40
2022-10-10T22:26:35.302Z,6.10
2022-10-10T22:31:38.284Z,6.40
2022-10-10T22:36:40.084Z,9.43
2022-10-10T22:41:37.686Z,8.73
2022-10-10T22:46:36.873Z,11.57
2022-10-10T22:51:36.746Z,8.20
2022-10-10T22:56:35.660Z,7.47
2022-10-10T23:01:34.555Z,7.82
2022-10-10T23:06:33.677Z,11.30
2022-10-10T23:11:34.851Z,11.20
2022-10-10T23:16:35.709Z,16.30
2022-10-10T23:21:36.622Z,13.85
2022-10-10T23:26:38.701Z,15.40
2022-10-10T23:31:36.687Z,10.63
2022-10-10T23:36:38.498Z,9.98
2022-10-10T23:41:40.112Z,5.15
2022-10-10T23:46:41.703Z,11.85
2022-10-10T23:51:40.702Z,13.23
2022-10-10T23:56:42.169Z,4.70
